Terminal Aerodrome Forecast
Issued by NWS

Home | Current Version | Previous Version | Graphics & Text | Print | Product List | Glossary On
Versions: 1 2 3 4 5 6 7 8 9 10 11 12
132
FTUS43 KICT 251122
TAFRSL
TAF
KRSL 251122Z 2512/2612 34015KT P6SM BKN250
     FM251500 34018G28KT P6SM SKC
     FM260000 31010KT P6SM SKC=

USA.gov is the U.S. government's official web portal to all federal, state and local government web resources and services.